Aérodrome :
LOGIN :

S'inscrire | Disclaimer

   EN    FR    IT 

 










Légende :    VFR   VFR Marginal   IFR   IFR Intensif   IFR Très Intensif
Visi : 
Plafond : 
>= 8 km
>= 3000ft
5 à 8 km
1000 à 3000 ft
1500m à 5 km
500 à 1000 ft
800 à 1500m
200 à 500 ft
< 800m
< 200 ft
Symboles :   Orages  Brouillard  Fortes neiges  Fortes précipitations  Vent > 20 kt
SIGMETs :   Divers  Orages  Givrage  Turbulence  Onde Orograph.  Cendres Volcan.






- Altitude de l'aérodrome : 314 ft
- Code IATA : OTP


LROP - Bucarest - Henri Coanda

DERNIER METAR :
  • 242300Z 14005KT CAVOK 01/M06 Q1019 NOSIG

METARs EXPIRÉS :
  • 242230Z 18002KT CAVOK 01/M06 Q1020 NOSIG
  • 242200Z 20002KT CAVOK 02/M06 Q1020 NOSIG
  • 242130Z 34004KT 300V010 CAVOK 02/M06 Q1020 NOSIG
  • 242100Z 03005KT CAVOK 05/M07 Q1019 NOSIG
  • 242030Z 18005KT 130V230 CAVOK 05/M06 Q1020 NOSIG
  • 242000Z 29006KT 280V340 CAVOK 05/M07 Q1019 NOSIG

TAF TAF LROP
Valide du 24 à 18h jusqu'au 25 à 18h UTC


241700Z 2418/2518 34010KT CAVOK
BECMG 2419/2421 VRB04KT
BECMG 2504/2506 24012KT



MET'MAP, la Météo Aéronautique d'un coup d'oeil ! - Copyright ORBIFLY Décembre 2007 - Disclaimer

ORBIFLY MET'MAP TEAM :

Programmation & Développement : Alexandra Zaïnal
Sur une idée originale de : Baudouin d'Aumeries
Assistance à la programmation : Marc-Olivier Méhu
Soutien technique & logistique : Manuel Goepfert

Contact : metmap@orbifly.com




SOURCES & CREDITS :

   NOAA